Time;durP1;ratioP1;P1;durP2;ratioP2;P2;SDS_P1;SDS_P2;PMS_P1;PMS_P2;Temp;Humidity;BMP_temperature;BMP_pressure;BME280_temperature;BME280_humidity;BME280_pressure;Samples;Min_cycle;Max_cycle;Signal;HPM_P1;HPM_P2
2021/01/20 00:02:00;;;;;;;11.52;3.25;;;;;;;6.80;87.41;100048.69;5079492;28;20031;-73
2021/01/20 00:04:27;;;;;;;15.57;3.95;;;;;;;6.87;86.98;100034.03;5088227;28;20451;-73
2021/01/20 00:06:52;;;;;;;9.73;3.72;;;;;;;6.76;86.75;100032.00;5082842;28;20028;-74
2021/01/20 00:09:17;;;;;;;14.52;3.80;;;;;;;6.82;86.68;100031.66;5086490;28;20078;-73
2021/01/20 00:11:43;;;;;;;9.68;3.45;;;;;;;6.82;85.84;100025.44;5086806;28;20561;-73
2021/01/20 00:14:12;;;;;;;12.18;3.42;;;;;;;6.86;86.36;100013.63;5077715;28;20043;-73
2021/01/20 00:16:38;;;;;;;9.85;3.75;;;;;;;6.86;86.67;100006.50;5088311;28;20043;-74
2021/01/20 00:19:03;;;;;;;13.68;3.80;;;;;;;6.80;86.98;100016.66;5067900;28;20356;-73
2021/01/20 00:21:28;;;;;;;12.65;4.85;;;;;;;6.79;87.06;100002.47;5077060;28;20036;-73
2021/01/20 00:23:54;;;;;;;14.43;4.38;;;;;;;6.77;87.47;99990.19;5079799;28;20032;-73
2021/01/20 00:26:19;;;;;;;9.23;4.30;;;;;;;6.77;87.11;100000.88;5078212;28;20030;-74
2021/01/20 00:28:45;;;;;;;11.15;3.90;;;;;;;6.73;86.71;99985.97;5082562;28;20506;-73
2021/01/20 00:31:11;;;;;;;13.35;4.47;;;;;;;6.73;87.40;99985.97;5086540;28;20032;-73
2021/01/20 00:33:36;;;;;;;8.25;3.83;;;;;;;6.74;87.54;99979.69;5061770;28;20085;-73
2021/01/20 00:36:02;;;;;;;8.07;4.10;;;;;;;6.69;88.55;99969.31;5083540;28;20040;-74
2021/01/20 00:38:27;;;;;;;13.80;4.97;;;;;;;6.60;88.29;99966.34;5084662;28;20414;-75
2021/01/20 00:40:53;;;;;;;12.32;4.00;;;;;;;6.70;87.73;99967.50;5071783;28;20024;-73
2021/01/20 00:43:18;;;;;;;7.28;4.25;;;;;;;6.77;87.50;99963.53;5085857;28;20515;-73
2021/01/20 00:45:44;;;;;;;13.73;4.07;;;;;;;6.74;88.00;99961.03;5081778;28;20494;-73
2021/01/20 00:48:10;;;;;;;9.32;4.95;;;;;;;6.70;87.86;99963.03;5084841;28;20036;-73
2021/01/20 00:50:36;;;;;;;13.55;5.07;;;;;;;6.66;88.77;99955.31;5079354;28;20529;-74
2021/01/20 00:53:01;;;;;;;9.95;4.47;;;;;;;6.71;88.50;99955.91;5088168;28;20158;-74
2021/01/20 00:55:27;;;;;;;11.70;4.68;;;;;;;6.67;88.78;99957.00;5088104;28;20040;-73
2021/01/20 00:57:53;;;;;;;9.90;4.47;;;;;;;6.70;89.21;99951.50;5067048;28;20078;-73
2021/01/20 01:00:19;;;;;;;12.65;4.70;;;;;;;6.77;88.53;99945.72;5070700;28;20035;-73
2021/01/20 01:02:45;;;;;;;11.25;5.07;;;;;;;6.77;89.56;99947.53;5087061;28;20094;-73
2021/01/20 01:05:11;;;;;;;12.10;5.07;;;;;;;6.73;88.80;99935.31;5070527;28;20398;-74
2021/01/20 01:07:37;;;;;;;12.43;4.95;;;;;;;6.81;88.12;99930.38;5075857;28;20032;-73
2021/01/20 01:10:03;;;;;;;9.57;4.45;;;;;;;6.74;88.64;99927.22;5070989;28;20024;-74
2021/01/20 01:12:47;;;;;;;10.10;5.03;;;;;;;6.76;89.09;99920.00;5076941;28;20078;-73
2021/01/20 01:15:13;;;;;;;11.57;4.65;;;;;;;6.67;89.50;99927.69;5086816;28;20520;-74
2021/01/20 01:17:39;;;;;;;11.68;4.20;;;;;;;6.69;90.13;99917.78;5076732;28;20048;-73
2021/01/20 01:20:05;;;;;;;10.00;4.50;;;;;;;6.78;89.32;99911.91;5085914;28;20118;-74
2021/01/20 01:22:31;;;;;;;7.85;4.10;;;;;;;6.77;88.75;99907.53;5087907;28;20055;-75
2021/01/20 01:24:56;;;;;;;9.82;4.30;;;;;;;6.83;88.50;99900.00;5092023;28;20067;-74
2021/01/20 01:27:21;;;;;;;12.23;4.15;;;;;;;6.88;89.38;99907.72;5097466;28;20024;-74
2021/01/20 01:29:50;;;;;;;10.60;5.15;;;;;;;6.83;88.64;99907.13;5079840;28;20067;-74
2021/01/20 01:32:25;;;;;;;10.23;4.40;;;;;;;6.93;88.54;99907.41;5080607;28;20089;-73
2021/01/20 01:34:52;;;;;;;8.20;4.70;;;;;;;7.06;87.39;99895.88;5080252;28;20024;-74
2021/01/20 01:37:17;;;;;;;10.68;4.47;;;;;;;7.07;87.33;99899.41;5090972;28;20039;-73
2021/01/20 01:40:05;;;;;;;12.40;4.72;;;;;;;7.15;86.15;99898.00;5083780;28;20127;-73
2021/01/20 01:42:34;;;;;;;9.40;3.83;;;;;;;7.07;86.32;99897.59;5073962;28;20023;-75
2021/01/20 01:45:01;;;;;;;10.82;3.70;;;;;;;7.03;86.09;99890.75;5074907;28;20028;-74
2021/01/20 01:47:27;;;;;;;6.53;3.53;;;;;;;7.09;86.36;99906.38;5108793;27;20027;-74
2021/01/20 01:50:02;;;;;;;9.90;4.60;;;;;;;7.10;85.66;99893.88;5079156;28;20612;-74
2021/01/20 01:52:30;;;;;;;6.65;3.45;;;;;;;7.06;86.25;99898.56;5055817;28;20494;-74
2021/01/20 01:55:15;;;;;;;7.63;3.85;;;;;;;7.22;85.52;99895.78;5070200;28;20075;-73
2021/01/20 01:58:12;;;;;;;9.30;3.45;;;;;;;7.13;85.82;99891.88;5072355;28;20040;-74
2021/01/20 02:00:41;;;;;;;8.57;3.50;;;;;;;7.20;85.98;99906.56;5092236;28;20077;-73
2021/01/20 02:03:30;;;;;;;7.97;3.03;;;;;;;7.20;84.25;99882.53;5072360;28;20666;-75
2021/01/20 02:05:57;;;;;;;10.95;3.95;;;;;;;7.28;84.39;99884.72;5089232;28;20035;-75
2021/01/20 02:08:23;;;;;;;9.65;3.35;;;;;;;7.32;85.07;99886.22;5061169;28;20024;-74
2021/01/20 02:11:37;;;;;;;9.95;4.65;;;;;;;7.19;85.53;99879.97;5080453;28;20386;-74
2021/01/20 02:14:22;;;;;;;8.93;4.03;;;;;;;7.30;84.84;99885.47;5069630;28;20067;-74
2021/01/20 02:17:31;;;;;;;11.38;4.05;;;;;;;7.32;85.14;99886.22;5074986;28;20032;-74
2021/01/20 02:20:15;;;;;;;9.13;3.55;;;;;;;7.26;85.66;99884.81;5076957;28;20040;-74
2021/01/20 02:22:50;;;;;;;;;;;;;;;7.28;85.28;99874.88;5073929;28;20737;-74
2021/01/20 02:25:54;;;;;;;9.35;3.83;;;;;;;7.25;86.38;99860.88;5074757;28;19916;-74
2021/01/20 02:28:55;;;;;;;8.60;4.05;;;;;;;7.31;86.86;99868.50;5074361;28;20048;-74
2021/01/20 02:31:29;;;;;;;10.15;3.72;;;;;;;7.37;86.37;99857.41;5089016;28;20043;-74
2021/01/20 02:34:01;;;;;;;7.97;3.53;;;;;;;7.44;85.77;99855.22;5090848;28;20070;-74
2021/01/20 02:36:32;;;;;;;7.07;3.47;;;;;;;7.42;86.70;99857.13;5074565;28;20474;-75
2021/01/20 02:39:18;;;;;;;8.65;3.03;;;;;;;7.50;86.44;99868.16;5089658;28;20085;-74
2021/01/20 02:41:47;;;;;;;6.18;3.58;;;;;;;7.44;86.28;99865.88;5103503;28;20500;-74
2021/01/20 02:44:19;;;;;;;7.80;3.17;;;;;;;7.46;86.19;99856.84;5078173;28;20027;-74
2021/01/20 02:47:05;;;;;;;7.57;3.20;;;;;;;7.60;85.45;99862.09;5059188;28;20031;-74
2021/01/20 02:49:48;;;;;;;6.20;3.10;;;;;;;7.55;86.17;99855.34;5081761;28;20035;-75
2021/01/20 02:52:26;;;;;;;6.93;3.28;;;;;;;7.51;86.95;99861.88;5099843;28;20138;-75
2021/01/20 02:55:12;;;;;;;7.30;3.80;;;;;;;7.60;86.17;99847.91;5085405;28;20047;-74
2021/01/20 02:58:13;;;;;;;11.70;3.45;;;;;;;7.58;87.22;99845.34;5074371;28;20592;-74
2021/01/20 03:00:58;;;;;;;7.15;3.45;;;;;;;7.84;85.19;99838.25;5071044;28;20119;-74
2021/01/20 03:03:25;;;;;;;6.30;3.28;;;;;;;7.76;86.13;99845.09;5072266;28;20131;-73
2021/01/20 03:05:51;;;;;;;6.72;3.08;;;;;;;7.82;85.84;99848.22;5085783;28;20040;-74
2021/01/20 03:08:17;;;;;;;6.55;3.42;;;;;;;7.78;85.84;99845.84;5086216;28;20066;-74
2021/01/20 03:10:43;;;;;;;10.20;3.63;;;;;;;7.94;84.76;99841.19;5090525;28;20036;-74
2021/01/20 03:13:08;;;;;;;9.55;4.40;;;;;;;7.97;85.28;99838.28;5089238;28;20040;-74
2021/01/20 03:15:41;;;;;;;6.43;3.20;;;;;;;7.98;85.03;99835.53;5074202;28;20039;-73
2021/01/20 03:18:08;;;;;;;7.40;2.88;;;;;;;8.03;84.74;99830.72;5089834;28;20040;-74
2021/01/20 03:20:35;;;;;;;7.32;3.08;;;;;;;7.88;85.87;99829.09;5089288;28;20039;-74
2021/01/20 03:23:01;;;;;;;7.45;3.30;;;;;;;7.90;86.04;99820.97;5077405;28;20047;-74
2021/01/20 03:25:28;;;;;;;7.32;3.13;;;;;;;8.08;85.33;99822.41;5089366;28;20075;-74
2021/01/20 03:27:54;;;;;;;4.38;2.50;;;;;;;8.11;84.83;99812.34;5086992;28;20051;-74
2021/01/20 03:30:20;;;;;;;5.97;2.80;;;;;;;8.12;84.81;99811.41;5087154;28;20040;-74
2021/01/20 03:32:45;;;;;;;6.35;3.05;;;;;;;8.21;84.25;99809.06;5070305;28;20054;-75
2021/01/20 03:35:11;;;;;;;7.97;3.20;;;;;;;8.17;84.52;99812.88;5087452;28;20040;-73
2021/01/20 03:37:37;;;;;;;5.68;2.65;;;;;;;8.37;83.08;99804.38;5086299;28;20132;-73
2021/01/20 03:40:05;;;;;;;9.23;3.55;;;;;;;8.26;83.50;99810.44;5089255;28;20433;-74
2021/01/20 03:42:30;;;;;;;8.80;3.28;;;;;;;8.32;82.67;99798.50;5088283;28;20038;-74
2021/01/20 03:44:55;;;;;;;4.28;2.17;;;;;;;8.32;82.49;99794.00;5083484;28;20032;-74
2021/01/20 03:47:21;;;;;;;5.15;2.65;;;;;;;8.39;82.19;99786.41;5088817;28;20058;-74
2021/01/20 03:49:46;;;;;;;9.88;2.70;;;;;;;8.31;82.49;99775.41;5089540;28;20497;-73
2021/01/20 03:52:11;;;;;;;6.90;3.30;;;;;;;8.35;82.11;99782.22;5074847;28;20482;-74
2021/01/20 03:54:36;;;;;;;34.55;13.30;;;;;;;8.35;81.58;99782.22;5089621;28;20032;-75
2021/01/20 03:57:03;;;;;;;31.80;12.23;;;;;;;8.37;81.89;99785.66;5089060;28;20100;-74
2021/01/20 03:59:30;;;;;;;12.32;5.20;;;;;;;8.34;81.34;99780.50;5088743;28;20039;-73
2021/01/20 04:01:56;;;;;;;10.27;5.25;;;;;;;8.44;80.41;99762.88;5088656;28;20051;-73
2021/01/20 04:04:21;;;;;;;62.42;22.95;;;;;;;8.40;80.96;99772.91;5087767;28;20032;-74
2021/01/20 04:06:47;;;;;;;26.92;13.00;;;;;;;8.45;80.51;99767.28;5088917;28;20115;-74
2021/01/20 04:09:12;;;;;;;14.52;6.47;;;;;;;8.36;80.48;99765.22;5089371;28;20490;-74
2021/01/20 04:11:38;;;;;;;13.50;6.00;;;;;;;8.38;81.07;99749.94;5087498;28;20164;-74
2021/01/20 04:14:03;;;;;;;8.98;3.85;;;;;;;8.34;80.55;99753.78;5087272;28;20043;-74
2021/01/20 04:16:28;;;;;;;9.43;4.05;;;;;;;8.41;79.69;99749.72;5087926;28;20024;-74
2021/01/20 04:18:54;;;;;;;17.48;8.00;;;;;;;8.40;79.87;99753.34;5088426;28;20387;-73
2021/01/20 04:21:19;;;;;;;12.57;5.57;;;;;;;8.55;79.17;99741.56;5081652;28;20047;-74
2021/01/20 04:23:45;;;;;;;14.60;5.65;;;;;;;8.49;79.25;99750.03;5091126;28;20036;-74
2021/01/20 04:26:10;;;;;;;9.63;5.05;;;;;;;8.43;78.89;99743.31;5102530;28;20107;-74
2021/01/20 04:28:36;;;;;;;7.15;3.13;;;;;;;8.27;80.01;99736.44;5087792;28;20110;-74
2021/01/20 04:31:03;;;;;;;11.88;4.60;;;;;;;8.26;79.86;99734.75;5087816;28;20478;-74
2021/01/20 04:33:28;;;;;;;19.10;8.40;;;;;;;8.22;79.82;99726.06;5086160;28;20114;-74
2021/01/20 04:35:54;;;;;;;4.90;2.88;;;;;;;8.35;78.08;99723.41;5089169;28;20500;-74
2021/01/20 04:38:20;;;;;;;8.73;2.63;;;;;;;8.31;78.54;99720.13;5087800;28;20028;-74
2021/01/20 04:40:45;;;;;;;9.25;3.67;;;;;;;8.38;77.78;99717.84;5088866;28;20046;-74
2021/01/20 04:43:11;;;;;;;6.93;3.05;;;;;;;8.25;78.01;99716.97;5106502;28;20380;-74
2021/01/20 04:45:37;;;;;;;7.20;3.20;;;;;;;8.28;78.71;99714.94;5070229;28;20040;-74
2021/01/20 04:48:03;;;;;;;7.70;3.33;;;;;;;8.44;76.40;99712.06;5073941;28;20028;-74
2021/01/20 04:50:35;;;;;;;8.43;3.15;;;;;;;8.39;76.81;99709.69;5073019;28;20996;-74
2021/01/20 04:53:05;;;;;;;6.53;3.10;;;;;;;8.43;74.89;99715.72;5110687;27;20028;-74
2021/01/20 04:55:31;;;;;;;9.27;3.20;;;;;;;8.40;74.68;99705.22;5088501;28;20062;-74
2021/01/20 04:57:57;;;;;;;6.97;3.00;;;;;;;8.33;74.81;99704.78;5091485;28;20046;-74
2021/01/20 05:00:23;;;;;;;6.28;3.00;;;;;;;8.38;73.59;99701.81;5088895;28;20036;-74
2021/01/20 05:02:50;;;;;;;4.75;2.70;;;;;;;8.47;72.35;99712.69;5088290;28;20505;-74
2021/01/20 05:05:15;;;;;;;7.40;3.15;;;;;;;8.61;72.05;99692.13;5073891;28;20526;-74
2021/01/20 05:07:41;;;;;;;7.60;2.90;;;;;;;8.58;71.12;99693.19;5084965;28;20030;-74
2021/01/20 05:10:07;;;;;;;4.35;2.75;;;;;;;8.51;71.60;99682.13;5077888;28;20436;-74
2021/01/20 05:12:37;;;;;;;5.25;2.75;;;;;;;8.61;70.58;99687.63;5091123;28;20110;-74
2021/01/20 05:15:05;;;;;;;5.45;2.70;;;;;;;8.58;71.08;99677.16;5076746;28;20058;-74
2021/01/20 05:17:32;;;;;;;7.38;3.40;;;;;;;8.44;71.71;99680.00;5091720;28;20032;-74
2021/01/20 05:19:58;;;;;;;6.82;2.78;;;;;;;8.29;72.26;99675.69;5077566;28;20054;-74
2021/01/20 05:22:23;;;;;;;5.65;2.80;;;;;;;8.23;71.60;99681.47;5090528;28;20393;-74
2021/01/20 05:25:00;;;;;;;5.22;2.58;;;;;;;8.41;70.36;99674.84;5092296;28;20133;-74
2021/01/20 05:27:31;;;;;;;6.00;2.60;;;;;;;8.50;69.69;99684.91;5089941;28;20035;-74
2021/01/20 05:29:57;;;;;;;5.43;2.58;;;;;;;8.52;69.57;99693.63;5086841;28;20048;-75
2021/01/20 05:32:22;;;;;;;5.75;3.40;;;;;;;8.51;69.69;99681.25;5090927;28;20093;-74
2021/01/20 05:35:04;;;;;;;4.78;2.30;;;;;;;8.39;71.03;99682.97;5091376;28;20039;-74
2021/01/20 05:37:29;;;;;;;5.35;2.25;;;;;;;8.46;70.62;99678.88;5090252;28;20497;-74
2021/01/20 05:40:12;;;;;;;22.75;3.45;;;;;;;8.40;71.83;99679.34;5084693;28;20062;-74
2021/01/20 05:42:45;;;;;;;4.10;2.40;;;;;;;8.46;71.22;99684.25;5090748;28;20035;-74
2021/01/20 05:45:12;;;;;;;4.72;2.40;;;;;;;8.38;71.71;99681.28;5071973;28;20111;-74
2021/01/20 05:47:38;;;;;;;5.78;2.50;;;;;;;8.37;72.69;99668.03;5060489;28;20032;-74
2021/01/20 05:50:07;;;;;;;5.72;2.20;;;;;;;8.50;72.50;99669.69;5091953;28;20100;-74
2021/01/20 05:52:33;;;;;;;5.43;2.58;;;;;;;8.51;73.18;99659.88;5084169;28;20482;-74
2021/01/20 05:55:09;;;;;;;5.40;2.10;;;;;;;8.46;74.24;99662.00;5094509;28;20047;-74
2021/01/20 05:57:34;;;;;;;4.30;2.08;;;;;;;8.42;74.07;99660.50;5085318;28;20033;-74
2021/01/20 06:00:14;;;;;;;4.30;1.95;;;;;;;8.52;73.11;99661.53;5076326;28;20032;-74
2021/01/20 06:02:41;;;;;;;4.20;2.00;;;;;;;8.58;74.04;99665.63;5074570;28;20039;-73
2021/01/20 06:05:09;;;;;;;3.40;2.28;;;;;;;8.62;73.05;99657.25;5089468;28;20043;-74
2021/01/20 06:07:37;;;;;;;3.25;1.95;;;;;;;8.36;74.88;99648.44;5096306;28;20089;-74
2021/01/20 06:10:03;;;;;;;3.97;1.88;;;;;;;8.56;74.99;99656.84;5088044;28;20046;-74
2021/01/20 06:12:28;;;;;;;6.32;2.17;;;;;;;8.67;74.67;99647.06;5081682;28;20489;-74
2021/01/20 06:14:53;;;;;;;4.38;2.05;;;;;;;8.72;74.96;99642.22;5074188;28;20165;-74
2021/01/20 06:17:36;;;;;;;3.13;1.70;;;;;;;8.63;75.15;99632.22;5091574;28;20050;-74
2021/01/20 06:20:04;;;;;;;4.35;1.80;;;;;;;8.64;75.44;99643.78;5073514;28;20118;-76
2021/01/20 06:22:31;;;;;;;4.03;2.28;;;;;;;8.60;76.32;99632.44;5090556;28;20444;-74
2021/01/20 06:25:08;;;;;;;2.50;1.48;;;;;;;8.67;75.26;99635.50;5090056;28;20028;-74
2021/01/20 06:27:53;;;;;;;3.63;1.70;;;;;;;8.68;75.60;99635.41;5065488;28;20039;-74
2021/01/20 06:30:31;;;;;;;5.97;1.77;;;;;;;8.56;76.76;99632.78;5089142;28;20059;-74
2021/01/20 06:32:58;;;;;;;4.78;2.00;;;;;;;8.60;77.34;99639.59;5077819;28;20036;-74
2021/01/20 06:35:45;;;;;;;3.10;2.13;;;;;;;8.62;77.59;99635.84;5087677;28;20470;-74
2021/01/20 06:38:35;;;;;;;25.23;9.73;;;;;;;8.61;77.44;99628.78;5086991;28;20036;-74
2021/01/20 06:41:07;;;;;;;4.95;2.03;;;;;;;8.71;78.66;99629.81;5073459;28;20047;-74
2021/01/20 06:43:55;;;;;;;6.53;2.33;;;;;;;8.73;79.70;99637.72;5086696;28;20107;-74
2021/01/20 06:46:25;;;;;;;3.08;1.70;;;;;;;8.76;80.00;99630.34;5064930;28;20052;-74
2021/01/20 06:48:53;;;;;;;3.95;1.80;;;;;;;8.72;80.99;99626.19;5071109;28;20038;-74
2021/01/20 06:51:22;;;;;;;4.43;1.42;;;;;;;8.65;81.02;99629.41;5070635;28;20193;-76
2021/01/20 06:54:04;;;;;;;3.50;1.73;;;;;;;8.71;81.47;99632.50;5068982;28;20123;-73
2021/01/20 06:56:40;;;;;;;3.17;1.10;;;;;;;8.60;82.22;99637.78;5085627;28;20036;-74
2021/01/20 06:59:26;;;;;;;4.07;1.60;;;;;;;8.72;83.04;99630.66;5087814;28;20029;-74
2021/01/20 07:02:08;;;;;;;5.35;1.67;;;;;;;8.70;82.76;99633.44;5087909;28;20036;-74
2021/01/20 07:04:36;;;;;;;2.53;1.30;;;;;;;8.71;82.50;99628.97;5084886;28;20505;-74
2021/01/20 07:07:06;;;;;;;4.63;1.58;;;;;;;8.61;83.03;99628.78;5074858;28;20495;-74
2021/01/20 07:09:50;;;;;;;6.18;1.38;;;;;;;8.55;84.00;99625.72;5087537;28;20027;-74
2021/01/20 07:12:25;;;;;;;5.93;2.03;;;;;;;8.52;84.40;99630.31;5086540;28;20037;-74
2021/01/20 07:14:51;;;;;;;4.60;1.55;;;;;;;8.62;85.32;99629.66;5092245;28;20028;-74
2021/01/20 07:17:18;;;;;;;2.30;1.42;;;;;;;8.40;86.11;99631.22;5081428;28;20032;-74
2021/01/20 07:19:51;;;;;;;6.63;3.15;;;;;;;8.41;86.83;99630.25;5087825;28;20123;-74
2021/01/20 07:22:17;;;;;;;2.42;1.05;;;;;;;8.33;87.52;99631.78;5072368;28;20036;-75
2021/01/20 07:24:43;;;;;;;2.78;1.38;;;;;;;8.48;86.95;99633.31;5087665;28;20032;-75
2021/01/20 07:27:13;;;;;;;3.10;1.33;;;;;;;8.31;87.63;99636.38;5087079;28;20034;-74
2021/01/20 07:29:42;;;;;;;2.53;1.50;;;;;;;8.35;88.03;99629.84;5072681;28;20495;-74
2021/01/20 07:32:08;;;;;;;2.55;1.23;;;;;;;8.24;88.48;99632.41;5079650;28;20083;-74
2021/01/20 07:34:41;;;;;;;5.85;1.80;;;;;;;8.15;88.45;99630.41;5085050;28;20031;-74
2021/01/20 07:37:09;;;;;;;5.28;1.65;;;;;;;8.19;88.91;99631.88;5084890;28;20089;-74
2021/01/20 07:39:35;;;;;;;3.78;1.60;;;;;;;8.17;87.35;99633.81;5094619;28;20046;-74
2021/01/20 07:42:00;;;;;;;3.60;1.48;;;;;;;8.30;84.89;99634.63;5086202;28;20024;-74
2021/01/20 07:44:32;;;;;;;2.90;1.70;;;;;;;8.26;84.33;99635.81;5082641;28;20123;-74
2021/01/20 07:47:07;;;;;;;2.78;1.48;;;;;;;8.33;84.04;99637.13;5087022;28;20024;-74
2021/01/20 07:49:33;;;;;;;4.93;1.85;;;;;;;8.28;84.40;99636.56;5063759;28;20028;-74
2021/01/20 07:52:07;;;;;;;4.75;1.80;;;;;;;8.35;83.99;99633.38;5080851;28;20034;-74
2021/01/20 07:54:39;;;;;;;5.00;1.65;;;;;;;8.27;83.29;99637.53;5087133;28;20036;-74
2021/01/20 07:57:06;;;;;;;2.72;1.70;;;;;;;8.35;83.96;99632.50;5084383;28;20032;-73
2021/01/20 07:59:32;;;;;;;4.22;1.75;;;;;;;8.37;82.44;99638.59;5085949;28;20036;-74
2021/01/20 08:02:15;;;;;;;2.53;1.42;;;;;;;8.48;81.74;99633.31;5070607;28;20111;-75
2021/01/20 08:04:41;;;;;;;22.35;9.82;;;;;;;8.41;83.15;99638.25;5063781;28;20131;-74
2021/01/20 08:07:08;;;;;;;2.70;1.40;;;;;;;8.45;82.79;99636.25;5087781;28;20036;-74
2021/01/20 08:09:38;;;;;;;3.88;1.60;;;;;;;8.40;84.31;99631.22;5082223;28;20326;-74
2021/01/20 08:12:09;;;;;;;2.92;2.00;;;;;;;8.45;85.25;99638.91;5087593;28;20020;-74
2021/01/20 08:14:37;;;;;;;3.38;1.48;;;;;;;8.39;85.91;99634.84;5083310;28;20040;-74
2021/01/20 08:17:04;;;;;;;2.78;1.17;;;;;;;8.46;85.49;99625.41;5087879;28;20031;-74
2021/01/20 08:19:31;;;;;;;3.15;1.50;;;;;;;8.41;85.35;99626.72;5085224;28;20024;-75
2021/01/20 08:21:58;;;;;;;3.25;1.65;;;;;;;8.45;85.08;99622.88;5086817;28;20127;-74
2021/01/20 08:24:24;;;;;;;4.68;1.58;;;;;;;8.45;84.56;99629.06;5107052;27;20051;-74
2021/01/20 08:26:54;;;;;;;6.85;1.92;;;;;;;8.51;83.13;99633.13;5085745;28;20485;-74
2021/01/20 08:29:21;;;;;;;3.25;1.45;;;;;;;8.60;81.72;99632.44;5093291;28;20091;-74
2021/01/20 08:32:13;;;;;;;3.22;1.50;;;;;;;8.63;81.46;99618.00;5076843;28;20094;-74
2021/01/20 08:34:40;;;;;;;2.72;1.40;;;;;;;8.59;80.98;99614.66;5089488;28;20226;-75
2021/01/20 08:37:13;;;;;;;3.20;1.65;;;;;;;8.57;80.98;99605.94;5076726;28;20063;-75
2021/01/20 08:39:50;;;;;;;4.43;1.70;;;;;;;8.67;80.93;99601.59;5073171;28;20032;-74
2021/01/20 08:42:38;;;;;;;2.45;1.38;;;;;;;8.59;80.05;99598.63;5077135;28;20039;-75
2021/01/20 08:45:30;;;;;;;3.92;1.35;;;;;;;8.61;80.22;99607.41;5080109;28;20425;-74
2021/01/20 08:48:08;;;;;;;2.60;1.50;;;;;;;8.61;80.23;99602.03;5088320;28;20153;-74
2021/01/20 08:50:42;;;;;;;2.60;1.45;;;;;;;8.68;79.37;99591.75;5095757;28;20114;-75
2021/01/20 08:53:12;;;;;;;3.10;1.33;;;;;;;8.65;79.07;99602.66;5074266;28;20043;-75
2021/01/20 08:55:40;;;;;;;3.28;1.60;;;;;;;8.65;79.65;99603.53;5075036;28;20636;-74
2021/01/20 08:58:17;;;;;;;2.95;1.50;;;;;;;8.68;77.63;99630.06;5091340;28;20486;-75
2021/01/20 09:00:43;;;;;;;4.20;1.50;;;;;;;8.74;76.82;99626.94;5072831;28;20032;-73
2021/01/20 09:03:19;;;;;;;4.63;1.65;;;;;;;8.74;78.28;99610.88;5090533;28;22728;-72
2021/01/20 09:05:46;;;;;;;3.75;1.77;;;;;;;8.73;77.07;99613.66;5091761;28;20440;-72
2021/01/20 09:08:13;;;;;;;4.35;2.13;;;;;;;8.80;75.95;99606.88;5086361;28;20028;-72
2021/01/20 09:10:38;;;;;;;3.72;1.75;;;;;;;8.76;76.55;99600.06;5073248;28;20039;-72
2021/01/20 09:13:04;;;;;;;4.28;1.65;;;;;;;8.71;77.24;99603.06;5087530;28;20032;-72
2021/01/20 09:15:29;;;;;;;6.20;2.97;;;;;;;8.74;76.73;99605.53;5091594;28;20525;-72
2021/01/20 09:17:55;;;;;;;3.88;2.28;;;;;;;8.76;77.63;99603.59;5085965;28;20039;-72
2021/01/20 09:20:20;;;;;;;13.23;5.13;;;;;;;8.75;77.21;99598.34;5085590;28;20028;-76
2021/01/20 09:22:46;;;;;;;8.82;3.60;;;;;;;8.77;76.17;99591.91;5075237;28;20498;-75
2021/01/20 09:25:12;;;;;;;4.70;2.08;;;;;;;8.85;74.45;99600.22;5088065;28;20074;-75
2021/01/20 09:27:37;;;;;;;3.53;1.90;;;;;;;8.84;75.88;99590.47;5087827;28;20107;-75
2021/01/20 09:30:03;;;;;;;8.95;3.45;;;;;;;8.92;74.98;99588.09;5094058;28;20050;-75
2021/01/20 09:32:35;;;;;;;6.43;2.85;;;;;;;8.92;74.52;99589.91;5092634;28;20541;-75
2021/01/20 09:35:00;;;;;;;11.80;4.22;;;;;;;8.99;73.65;99577.78;5106971;27;20035;-76
2021/01/20 09:37:26;;;;;;;6.28;2.30;;;;;;;9.03;72.87;99581.06;5093036;28;20067;-75
2021/01/20 09:39:52;;;;;;;7.95;3.08;;;;;;;9.07;73.06;99578.06;5090817;28;20083;-75
2021/01/20 09:42:17;;;;;;;10.77;4.20;;;;;;;9.09;73.31;99585.94;5088273;28;20040;-75
2021/01/20 09:44:45;;;;;;;4.97;2.85;;;;;;;9.10;72.79;99587.66;5108368;27;20151;-75
2021/01/20 09:47:10;;;;;;;5.32;1.88;;;;;;;9.19;72.04;99586.97;5098711;28;20107;-75
2021/01/20 09:49:36;;;;;;;7.80;1.73;;;;;;;9.21;71.95;99585.00;5088144;28;20119;-75
2021/01/20 09:52:03;;;;;;;4.80;1.77;;;;;;;9.17;71.73;99573.69;5090842;28;20024;-75
2021/01/20 09:54:28;;;;;;;3.95;2.03;;;;;;;9.31;71.20;99581.53;5091896;28;20081;-73
2021/01/20 09:56:53;;;;;;;2.60;1.55;;;;;;;9.39;69.43;99578.22;5086768;28;20031;-73
2021/01/20 09:59:19;;;;;;;4.40;1.60;;;;;;;9.36;70.10;99578.50;5089184;28;20038;-75
2021/01/20 10:01:44;;;;;;;3.03;1.35;;;;;;;9.46;69.26;99583.97;5086692;28;20024;-76
2021/01/20 10:04:09;;;;;;;4.47;1.83;;;;;;;9.48;69.00;99585.56;5085457;28;20398;-76
2021/01/20 10:06:35;;;;;;;4.05;1.80;;;;;;;9.42;68.79;99588.72;5091285;28;20036;-76
2021/01/20 10:09:00;;;;;;;6.75;2.17;;;;;;;9.34;69.17;99583.09;5091349;28;20055;-75
2021/01/20 10:11:27;;;;;;;5.50;1.70;;;;;;;9.36;69.76;99607.94;5086238;28;20039;-74
2021/01/20 10:13:53;;;;;;;10.10;2.25;;;;;;;9.34;69.50;99607.19;5081548;28;20028;-75
2021/01/20 10:16:18;;;;;;;2.45;1.40;;;;;;;9.35;70.36;99600.88;5079535;28;20024;-75
2021/01/20 10:18:47;;;;;;;7.30;1.65;;;;;;;9.55;64.79;99599.34;5087214;28;20490;-75
2021/01/20 10:21:12;;;;;;;3.65;1.70;;;;;;;9.47;66.94;99605.28;5090919;28;20028;-75
2021/01/20 10:23:37;;;;;;;7.55;2.45;;;;;;;9.50;68.73;99590.81;5084019;28;20482;-75
2021/01/20 10:26:03;;;;;;;4.75;1.73;;;;;;;9.56;66.43;99580.47;5089181;28;20032;-76
2021/01/20 10:28:28;;;;;;;4.47;2.10;;;;;;;9.58;64.90;99570.47;5078667;28;20112;-77
2021/01/20 10:30:54;;;;;;;4.07;1.60;;;;;;;9.56;65.80;99556.38;5091844;28;20028;-76
2021/01/20 10:33:19;;;;;;;5.13;1.92;;;;;;;9.61;66.05;99539.94;5093863;28;20540;-76
2021/01/20 10:35:44;;;;;;;3.92;1.40;;;;;;;9.59;65.85;99531.16;5074574;28;20043;-77
2021/01/20 10:38:10;;;;;;;3.88;1.73;;;;;;;9.56;65.48;99526.03;5088711;28;20032;-76
2021/01/20 10:40:35;;;;;;;5.45;1.80;;;;;;;9.44;65.82;99519.84;5087620;28;20892;-75
2021/01/20 10:43:01;;;;;;;3.80;1.90;;;;;;;9.53;65.29;99523.59;5081401;28;20036;-77
2021/01/20 10:45:26;;;;;;;3.65;1.80;;;;;;;9.44;65.87;99527.88;5076674;28;20042;-76
2021/01/20 10:47:52;;;;;;;7.57;2.10;;;;;;;9.46;65.45;99539.28;5086579;28;20063;-76
2021/01/20 10:50:17;;;;;;;9.52;2.17;;;;;;;9.46;66.11;99535.75;5093056;28;20125;-75
2021/01/20 10:52:43;;;;;;;3.90;1.95;;;;;;;9.54;64.89;99533.34;5089463;28;20054;-76
2021/01/20 10:55:08;;;;;;;14.15;2.00;;;;;;;9.68;65.08;99531.28;5088294;28;20059;-75
2021/01/20 10:57:34;;;;;;;11.40;2.08;;;;;;;9.69;66.23;99530.28;5084249;28;20077;-75
2021/01/20 10:59:59;;;;;;;8.40;2.25;;;;;;;9.79;65.45;99510.81;5094031;28;20054;-75
2021/01/20 11:02:25;;;;;;;7.75;1.77;;;;;;;9.80;64.79;99525.91;5075077;28;20153;-75
2021/01/20 11:04:50;;;;;;;7.07;1.70;;;;;;;9.74;64.87;99530.81;5082960;28;20036;-75
2021/01/20 11:07:17;;;;;;;4.05;1.70;;;;;;;9.67;65.04;99521.53;5078446;28;20047;-75
2021/01/20 11:09:43;;;;;;;7.88;2.05;;;;;;;9.74;65.48;99525.44;5079542;28;20078;-75
2021/01/20 11:12:09;;;;;;;5.22;2.00;;;;;;;9.73;65.57;99522.88;5096838;28;20039;-76
2021/01/20 11:14:34;;;;;;;5.78;2.22;;;;;;;9.80;65.27;99525.91;5104811;27;20028;-75
2021/01/20 11:17:00;;;;;;;3.45;1.90;;;;;;;9.77;64.90;99510.06;5072604;28;20375;-75
2021/01/20 11:19:25;;;;;;;10.57;2.78;;;;;;;9.82;66.40;99513.22;5082364;28;20036;-76
2021/01/20 11:21:51;;;;;;;3.63;1.70;;;;;;;10.02;63.31;99518.69;5086659;28;20038;-75
2021/01/20 11:24:21;;;;;;;8.60;1.83;;;;;;;10.06;60.19;99516.63;5089948;28;20130;-75
2021/01/20 11:26:47;;;;;;;6.72;2.00;;;;;;;10.07;60.86;99512.94;5089327;28;20028;-75
2021/01/20 11:29:14;;;;;;;2.95;1.75;;;;;;;10.05;61.29;99504.19;5078961;28;20051;-75
2021/01/20 11:31:39;;;;;;;8.45;2.25;;;;;;;9.93;62.04;99502.53;5068496;28;20082;-75
2021/01/20 11:34:05;;;;;;;4.10;1.90;;;;;;;9.96;60.21;99502.25;5089071;28;20448;-75
2021/01/20 11:36:30;;;;;;;2.97;1.50;;;;;;;9.97;60.43;99495.94;5090259;28;20032;-75
2021/01/20 11:38:56;;;;;;;4.15;1.90;;;;;;;10.08;59.28;99495.91;5085199;28;20526;-75
2021/01/20 11:41:21;;;;;;;8.88;1.83;;;;;;;10.07;58.13;99494.19;5080600;28;20487;-77
2021/01/20 11:43:47;;;;;;;5.72;2.35;;;;;;;10.20;57.78;99488.72;5086972;28;20096;-75
2021/01/20 11:46:14;;;;;;;5.18;2.20;;;;;;;10.19;58.39;99487.84;5082161;28;20066;-75
2021/01/20 11:48:40;;;;;;;4.13;1.98;;;;;;;10.17;58.60;99488.97;5081998;28;20030;-75
2021/01/20 11:51:06;;;;;;;6.18;2.22;;;;;;;10.31;57.86;99486.84;5083613;28;20032;-75